createdAt,value
2019-04-29T00:00:17.571Z,1.60
2019-04-29T00:02:49.785Z,1.77
2019-04-29T00:05:20.982Z,2.00
2019-04-29T00:07:51.478Z,1.70
2019-04-29T00:10:22.448Z,1.70
2019-04-29T00:12:52.927Z,1.73
2019-04-29T00:15:46.408Z,2.00
2019-04-29T00:18:15.334Z,2.10
2019-04-29T00:20:49.019Z,1.90
2019-04-29T00:23:19.566Z,2.40
2019-04-29T00:25:50.202Z,2.37
2019-04-29T00:28:20.784Z,2.67
2019-04-29T00:30:51.229Z,2.20
2019-04-29T00:33:21.693Z,2.03
2019-04-29T00:35:52.187Z,1.70
2019-04-29T00:38:24.434Z,1.57
2019-04-29T00:40:56.565Z,7.80
2019-04-29T00:43:37.939Z,1.93
2019-04-29T00:46:08.841Z,2.10
2019-04-29T00:48:39.303Z,1.73
2019-04-29T00:51:11.584Z,2.00
2019-04-29T00:53:43.376Z,1.97
2019-04-29T00:56:13.862Z,1.87
2019-04-29T00:58:44.336Z,2.30
2019-04-29T01:01:18.524Z,2.20
2019-04-29T01:03:48.685Z,2.00
2019-04-29T01:06:20.927Z,2.40
2019-04-29T01:08:51.536Z,2.27
2019-04-29T01:11:22.034Z,2.87
2019-04-29T01:13:52.537Z,2.53
2019-04-29T01:16:23.002Z,2.00
2019-04-29T01:18:53.500Z,2.13
2019-04-29T01:21:24.897Z,2.27
2019-04-29T01:23:55.403Z,2.20
2019-04-29T01:26:28.411Z,2.60
2019-04-29T01:29:03.083Z,2.27
2019-04-29T01:31:33.666Z,2.83
2019-04-29T01:34:05.866Z,2.07
2019-04-29T01:36:37.979Z,1.90
2019-04-29T01:39:11.355Z,1.87
2019-04-29T01:41:49.288Z,2.80
2019-04-29T01:44:21.418Z,2.07
2019-04-29T01:46:53.686Z,2.00
2019-04-29T01:49:24.159Z,1.97
2019-04-29T01:51:54.635Z,2.30
2019-04-29T01:54:25.141Z,1.60
2019-04-29T01:56:56.551Z,2.13
2019-04-29T01:59:28.856Z,1.70
2019-04-29T02:02:01.953Z,1.93
2019-04-29T02:04:32.489Z,1.83
2019-04-29T02:07:03.052Z,2.40
2019-04-29T02:09:37.900Z,1.90
2019-04-29T02:12:09.529Z,1.60
2019-04-29T02:14:40.005Z,1.87
2019-04-29T02:17:10.489Z,1.60
2019-04-29T02:19:40.982Z,1.53
2019-04-29T02:22:16.084Z,1.47
2019-04-29T02:25:00.193Z,1.27
2019-04-29T02:27:32.337Z,1.03
2019-04-29T02:30:02.886Z,1.13
2019-04-29T02:32:33.389Z,1.07
2019-04-29T02:35:05.567Z,1.00
2019-04-29T02:37:37.705Z,1.10
2019-04-29T02:40:28.328Z,1.30
2019-04-29T02:43:00.733Z,1.40
2019-04-29T02:45:32.862Z,1.30
2019-04-29T02:48:03.353Z,1.23
2019-04-29T02:50:35.125Z,1.53
2019-04-29T02:53:05.693Z,1.63
2019-04-29T02:55:37.856Z,1.33
2019-04-29T02:58:12.797Z,1.47
2019-04-29T03:01:01.217Z,1.60
2019-04-29T03:03:33.363Z,1.57
2019-04-29T03:06:04.261Z,1.50
2019-04-29T03:08:34.830Z,1.63
2019-04-29T03:11:05.424Z,1.60
2019-04-29T03:13:36.072Z,1.57
2019-04-29T03:16:06.687Z,1.70
2019-04-29T03:18:38.888Z,1.40
2019-04-29T03:21:13.892Z,1.27
2019-04-29T03:23:47.454Z,1.60
2019-04-29T03:26:18.030Z,1.70
2019-04-29T03:28:48.497Z,2.03
2019-04-29T03:31:18.984Z,2.20
2019-04-29T03:33:51.127Z,1.70
2019-04-29T03:36:21.611Z,1.63
2019-04-29T03:38:52.420Z,1.70
2019-04-29T03:41:22.952Z,1.83
2019-04-29T03:43:53.560Z,2.00
2019-04-29T03:46:25.413Z,1.80
2019-04-29T03:48:55.930Z,2.20
2019-04-29T03:51:27.437Z,2.10
2019-04-29T03:53:59.052Z,2.80
2019-04-29T03:56:29.677Z,4.13
2019-04-29T03:59:00.185Z,3.00
2019-04-29T04:01:40.219Z,2.67
2019-04-29T04:04:15.068Z,3.60
2019-04-29T04:06:49.899Z,3.37
2019-04-29T04:09:24.491Z,2.70
2019-04-29T04:11:56.848Z,2.20
2019-04-29T04:14:27.352Z,2.77
2019-04-29T04:17:06.787Z,10.70
2019-04-29T04:19:37.280Z,15.97
2019-04-29T04:22:08.510Z,8.50
2019-04-29T04:24:39.002Z,21.90
2019-04-29T04:27:09.476Z,22.60
2019-04-29T04:29:40.305Z,14.50
2019-04-29T04:32:10.772Z,13.90
2019-04-29T04:34:41.297Z,3.20
2019-04-29T04:37:11.754Z,1.60
2019-04-29T04:39:43.959Z,1.97
2019-04-29T04:42:14.482Z,1.70
2019-04-29T04:44:50.543Z,1.90
2019-04-29T04:47:21.242Z,1.93
2019-04-29T04:49:51.737Z,12.37
2019-04-29T04:52:22.216Z,19.77
2019-04-29T04:54:54.346Z,3.50
2019-04-29T04:57:26.124Z,2.80
2019-04-29T04:59:56.635Z,2.07
2019-04-29T05:02:27.092Z,3.00
2019-04-29T05:04:57.584Z,4.53
2019-04-29T05:07:28.072Z,7.50
2019-04-29T05:09:59.176Z,3.10
2019-04-29T05:12:29.684Z,8.57
2019-04-29T05:15:01.780Z,7.90
2019-04-29T05:17:32.258Z,3.57
2019-04-29T05:20:02.758Z,2.30
2019-04-29T05:22:33.259Z,2.47
2019-04-29T05:25:06.944Z,2.57
2019-04-29T05:27:37.441Z,2.80
2019-04-29T05:30:08.313Z,2.27
2019-04-29T05:32:40.392Z,2.00
2019-04-29T05:35:12.597Z,1.70
2019-04-29T05:37:47.430Z,1.50
2019-04-29T05:40:19.557Z,1.83
2019-04-29T05:42:52.639Z,1.60
2019-04-29T05:45:23.868Z,43.47
2019-04-29T05:47:57.105Z,17.53
2019-04-29T05:50:38.836Z,13.23
2019-04-29T05:53:16.134Z,3.50
2019-04-29T05:55:46.028Z,1.60
2019-04-29T05:58:16.519Z,1.20
2019-04-29T06:00:57.567Z,1.00
2019-04-29T06:03:28.126Z,1.07
2019-04-29T06:05:58.597Z,1.10
2019-04-29T06:08:29.091Z,0.80
2019-04-29T06:10:59.591Z,0.70
2019-04-29T06:13:30.067Z,0.80
2019-04-29T06:16:00.560Z,2.00
2019-04-29T06:18:31.021Z,1.87
2019-04-29T06:21:08.838Z,1.97
2019-04-29T06:23:33.684Z,1.57
2019-04-29T06:26:04.315Z,1.00
2019-04-29T06:28:34.789Z,3.60
2019-04-29T06:31:06.723Z,8.80
2019-04-29T06:33:37.192Z,16.03
2019-04-29T06:36:08.352Z,1.83
2019-04-29T06:38:38.832Z,0.77
2019-04-29T06:41:09.698Z,0.80
2019-04-29T06:43:41.761Z,1.20
2019-04-29T06:46:12.300Z,1.10
2019-04-29T06:48:42.810Z,1.30
2019-04-29T06:51:13.326Z,1.80
2019-04-29T06:53:43.826Z,2.60
2019-04-29T06:56:14.313Z,2.90
2019-04-29T06:58:48.827Z,4.90
2019-04-29T07:01:18.006Z,9.27
2019-04-29T07:03:48.579Z,1.77
2019-04-29T07:06:19.094Z,1.27
2019-04-29T07:08:49.560Z,1.30
2019-04-29T07:11:20.103Z,0.90
2019-04-29T07:13:53.443Z,1.23
2019-04-29T07:16:27.310Z,1.00
2019-04-29T07:18:55.012Z,0.80
2019-04-29T07:21:25.473Z,0.80
2019-04-29T07:23:55.986Z,1.10
2019-04-29T07:26:26.456Z,1.23
2019-04-29T07:28:56.945Z,0.90
2019-04-29T07:31:28.317Z,1.00
2019-04-29T07:33:59.607Z,2.20
2019-04-29T07:36:30.132Z,1.37
2019-04-29T07:39:00.660Z,1.00
2019-04-29T07:41:31.141Z,1.17
2019-04-29T07:44:01.686Z,26.90
2019-04-29T07:46:56.008Z,25.93
2019-04-29T07:49:16.619Z,2.70
2019-04-29T07:51:44.964Z,0.87
2019-04-29T07:54:16.382Z,1.10
2019-04-29T07:56:47.748Z,1.07
2019-04-29T07:59:18.276Z,1.30
2019-04-29T08:01:48.770Z,0.90
2019-04-29T08:04:19.231Z,1.20
2019-04-29T08:06:50.001Z,1.10
2019-04-29T08:09:20.522Z,0.90
2019-04-29T08:11:51.072Z,0.90
2019-04-29T08:14:23.647Z,1.10
2019-04-29T08:16:54.193Z,1.07
2019-04-29T08:19:29.256Z,0.80
2019-04-29T08:21:56.973Z,1.23
2019-04-29T08:24:27.500Z,1.13
2019-04-29T08:26:58.111Z,1.20
2019-04-29T08:29:30.888Z,0.93
2019-04-29T08:32:02.498Z,0.90
2019-04-29T08:34:33.421Z,1.00
2019-04-29T08:37:04.115Z,1.37
2019-04-29T08:39:34.739Z,1.30
2019-04-29T08:42:09.164Z,1.13
2019-04-29T08:44:44.633Z,1.10
2019-04-29T08:47:23.663Z,1.30
2019-04-29T08:49:53.162Z,0.90
2019-04-29T08:52:23.861Z,1.10
2019-04-29T08:54:57.382Z,1.13
2019-04-29T08:57:31.723Z,0.90
2019-04-29T09:00:00.253Z,0.90
2019-04-29T09:02:34.896Z,0.80
2019-04-29T09:05:06.906Z,1.20
2019-04-29T09:07:36.787Z,1.10
2019-04-29T09:10:10.058Z,1.20
2019-04-29T09:12:41.481Z,1.40
2019-04-29T09:15:12.693Z,1.10
2019-04-29T09:17:43.326Z,1.33
2019-04-29T09:20:14.522Z,0.97
2019-04-29T09:22:55.988Z,1.10
2019-04-29T09:25:26.518Z,0.90
2019-04-29T09:28:02.998Z,0.80
2019-04-29T09:30:34.252Z,1.00
2019-04-29T09:33:08.891Z,0.80
2019-04-29T09:35:38.771Z,1.20
2019-04-29T09:38:09.989Z,1.10
2019-04-29T09:40:45.450Z,1.00
2019-04-29T09:43:16.283Z,1.20
2019-04-29T09:45:53.992Z,0.90
2019-04-29T09:48:23.406Z,1.40
2019-04-29T09:50:54.930Z,0.93
2019-04-29T09:53:25.603Z,0.60
2019-04-29T09:55:56.465Z,1.00
2019-04-29T09:58:27.018Z,0.73
2019-04-29T10:01:18.694Z,1.10
2019-04-29T10:03:57.234Z,0.83
2019-04-29T10:06:30.124Z,0.90
2019-04-29T10:09:00.831Z,0.80
2019-04-29T10:11:32.260Z,0.70
2019-04-29T10:14:03.000Z,0.80
2019-04-29T10:16:35.933Z,0.93
2019-04-29T10:19:09.327Z,1.10
2019-04-29T10:21:41.440Z,1.00
2019-04-29T10:24:14.614Z,0.90
2019-04-29T10:26:44.584Z,0.90
2019-04-29T10:29:25.616Z,0.93
2019-04-29T10:31:54.772Z,0.70
2019-04-29T10:34:26.935Z,0.93
2019-04-29T10:36:57.572Z,1.10
2019-04-29T10:39:45.075Z,0.80
2019-04-29T10:42:17.244Z,0.90
2019-04-29T10:45:05.506Z,1.00
2019-04-29T10:47:46.655Z,1.10
2019-04-29T10:50:23.766Z,1.27
2019-04-29T10:52:54.185Z,1.10
2019-04-29T10:55:25.653Z,0.90
2019-04-29T10:57:57.099Z,4.47
2019-04-29T11:01:09.258Z,2.30
2019-04-29T11:03:40.216Z,7.17
2019-04-29T11:06:10.700Z,4.47
2019-04-29T11:08:48.915Z,1.83
2019-04-29T11:11:24.140Z,1.50
2019-04-29T11:13:51.676Z,1.40
2019-04-29T11:16:22.852Z,1.13
2019-04-29T11:18:55.091Z,0.90
2019-04-29T11:21:29.523Z,0.87
2019-04-29T11:24:00.506Z,0.90
2019-04-29T11:26:32.712Z,1.13
2019-04-29T11:29:07.363Z,1.10
2019-04-29T11:31:37.575Z,1.40
2019-04-29T11:34:18.568Z,1.20
2019-04-29T11:36:49.204Z,1.10
2019-04-29T11:39:19.866Z,3.33
2019-04-29T11:41:54.713Z,3.43
2019-04-29T11:44:26.520Z,1.80
2019-04-29T11:46:55.087Z,1.20
2019-04-29T11:49:27.258Z,1.30
2019-04-29T11:52:09.199Z,1.23
2019-04-29T11:54:29.984Z,1.50
2019-04-29T11:57:00.564Z,1.43
2019-04-29T11:59:48.872Z,1.27
2019-04-29T12:02:24.807Z,1.80
2019-04-29T12:04:55.537Z,1.47
2019-04-29T12:07:32.036Z,1.50
2019-04-29T12:10:02.341Z,1.50
2019-04-29T12:12:30.571Z,1.70
2019-04-29T12:15:09.085Z,2.20
2019-04-29T12:17:39.398Z,1.90
2019-04-29T12:20:29.579Z,1.63
2019-04-29T12:23:00.633Z,1.90
2019-04-29T12:25:31.203Z,1.90
2019-04-29T12:28:12.386Z,1.40
2019-04-29T12:30:38.524Z,1.40
2019-04-29T12:33:10.729Z,4.57
2019-04-29T12:36:03.353Z,5.20
2019-04-29T12:38:49.071Z,1.23
2019-04-29T12:41:29.857Z,1.57
2019-04-29T12:44:11.109Z,1.80
2019-04-29T12:46:46.143Z,1.47
2019-04-29T12:49:16.634Z,1.40
2019-04-29T12:51:47.078Z,1.80
2019-04-29T12:54:17.567Z,1.70
2019-04-29T12:56:49.513Z,2.30
2019-04-29T12:59:20.285Z,1.50
2019-04-29T13:01:54.073Z,1.10
2019-04-29T13:04:37.463Z,1.27
2019-04-29T13:07:12.229Z,1.20
2019-04-29T13:09:44.356Z,1.37
2019-04-29T13:12:19.689Z,1.40
2019-04-29T13:15:08.048Z,1.17
2019-04-29T13:17:38.973Z,1.87
2019-04-29T13:20:11.621Z,1.57
2019-04-29T13:22:42.925Z,1.30
2019-04-29T13:25:15.633Z,1.43
2019-04-29T13:27:46.078Z,1.57
2019-04-29T13:30:17.089Z,1.40
2019-04-29T13:32:47.551Z,1.20
2019-04-29T13:35:18.110Z,1.40
2019-04-29T13:37:48.592Z,1.50
2019-04-29T13:40:21.332Z,1.30
2019-04-29T13:42:52.001Z,1.37
2019-04-29T13:45:25.622Z,1.23
2019-04-29T13:52:07.165Z,1.50
2019-04-29T13:54:42.336Z,1.30
2019-04-29T14:01:58.366Z,1.60
2019-04-29T14:04:13.774Z,1.50
2019-04-29T14:06:56.519Z,1.80
2019-04-29T14:09:18.090Z,1.87
2019-04-29T14:12:00.979Z,1.50
2019-04-29T14:14:22.618Z,1.27
2019-04-29T14:17:11.517Z,1.47
2019-04-29T14:19:40.318Z,1.40
2019-04-29T14:21:57.478Z,1.30
2019-04-29T14:24:27.977Z,1.30
2019-04-29T14:26:58.518Z,1.30
2019-04-29T14:29:30.313Z,1.20
2019-04-29T14:32:01.470Z,1.20
2019-04-29T14:34:36.701Z,1.73
2019-04-29T14:37:25.376Z,1.60
2019-04-29T14:39:39.650Z,1.70
2019-04-29T14:42:20.943Z,2.00
2019-04-29T14:44:53.049Z,2.10
2019-04-29T14:47:27.865Z,1.80
2019-04-29T14:50:00.000Z,1.87
2019-04-29T14:52:30.455Z,1.73
2019-04-29T14:55:00.947Z,1.63
2019-04-29T14:57:31.455Z,1.60
2019-04-29T15:00:02.288Z,2.07
2019-04-29T15:02:33.121Z,2.20
2019-04-29T15:05:07.284Z,1.63
2019-04-29T15:07:37.187Z,1.37
2019-04-29T15:10:09.535Z,1.50
2019-04-29T15:13:11.469Z,1.67
2019-04-29T15:15:37.605Z,2.00
2019-04-29T15:18:46.185Z,1.50
2019-04-29T15:21:01.747Z,1.70
2019-04-29T15:23:32.986Z,2.27
2019-04-29T15:26:03.542Z,1.80
2019-04-29T15:28:35.685Z,34.77
2019-04-29T15:31:07.979Z,10.20
2019-04-29T15:33:38.407Z,4.00
2019-04-29T15:36:08.885Z,16.87
2019-04-29T15:38:39.376Z,2.57
2019-04-29T15:41:09.843Z,1.90
2019-04-29T15:43:46.928Z,1.90
2019-04-29T15:46:13.582Z,2.37
2019-04-29T15:48:44.061Z,1.90
2019-04-29T15:51:14.930Z,1.97
2019-04-29T15:53:45.552Z,2.27
2019-04-29T15:56:28.345Z,2.33
2019-04-29T15:58:48.477Z,2.93
2019-04-29T16:01:27.319Z,2.07
2019-04-29T16:03:54.679Z,20.20
2019-04-29T16:06:34.022Z,8.00
2019-04-29T16:09:13.962Z,11.03
2019-04-29T16:11:48.631Z,14.00
2019-04-29T16:14:20.766Z,7.77
2019-04-29T16:16:51.480Z,2.50
2019-04-29T16:19:22.005Z,2.20
2019-04-29T16:21:52.522Z,2.17
2019-04-29T16:24:27.310Z,2.30
2019-04-29T16:26:55.195Z,4.00
2019-04-29T16:29:25.681Z,5.13
2019-04-29T16:32:02.591Z,16.17
2019-04-29T16:34:28.372Z,7.70
2019-04-29T16:36:58.835Z,4.70
2019-04-29T16:39:29.486Z,3.40
2019-04-29T16:42:04.391Z,4.13
2019-04-29T16:44:36.430Z,2.67
2019-04-29T16:47:13.288Z,3.23
2019-04-29T16:49:40.940Z,4.50
2019-04-29T16:52:11.478Z,4.80
2019-04-29T16:54:42.093Z,4.53
2019-04-29T16:57:12.606Z,4.73
2019-04-29T16:59:43.063Z,4.37
2019-04-29T17:02:19.202Z,4.20
2019-04-29T17:04:45.775Z,6.40
2019-04-29T17:07:17.600Z,8.53
2019-04-29T17:09:55.751Z,9.00
2019-04-29T17:12:36.254Z,10.40
2019-04-29T17:15:04.763Z,9.50
2019-04-29T17:17:34.763Z,7.83
2019-04-29T17:20:06.946Z,8.57
2019-04-29T17:22:43.143Z,7.40
2019-04-29T17:25:10.787Z,8.47
2019-04-29T17:27:45.394Z,8.10
2019-04-29T17:30:27.454Z,9.57
2019-04-29T17:33:04.047Z,8.80
2019-04-29T17:35:36.564Z,7.60
2019-04-29T17:38:07.025Z,8.37
2019-04-29T17:40:50.485Z,7.67
2019-04-29T17:43:15.413Z,6.70
2019-04-29T17:45:57.729Z,9.43
2019-04-29T17:48:29.852Z,9.93
2019-04-29T17:51:11.487Z,9.80
2019-04-29T17:53:43.654Z,9.37
2019-04-29T17:56:30.814Z,10.47
2019-04-29T17:59:02.931Z,11.23
2019-04-29T18:01:47.120Z,9.47
2019-04-29T18:04:28.292Z,10.40
2019-04-29T18:07:16.795Z,12.50
2019-04-29T18:09:49.032Z,12.33
2019-04-29T18:12:21.143Z,14.63
2019-04-29T18:14:51.720Z,15.37
2019-04-29T18:17:28.956Z,11.60
2019-04-29T18:20:13.667Z,11.97
2019-04-29T18:22:44.724Z,12.30
2019-04-29T18:25:16.979Z,14.13
2019-04-29T18:27:49.103Z,10.57
2019-04-29T18:30:33.242Z,10.37
2019-04-29T18:32:55.114Z,9.80
2019-04-29T18:35:25.698Z,9.67
2019-04-29T18:37:56.210Z,9.63
2019-04-29T18:40:26.677Z,10.47
2019-04-29T18:42:57.181Z,10.00
2019-04-29T18:45:30.049Z,11.23
2019-04-29T18:47:59.877Z,10.43
2019-04-29T18:50:34.235Z,9.67
2019-04-29T18:53:02.555Z,9.37
2019-04-29T18:55:33.017Z,8.80
2019-04-29T18:58:05.860Z,9.40
2019-04-29T19:00:36.474Z,9.77
2019-04-29T19:03:08.734Z,8.90
2019-04-29T19:05:47.828Z,10.00
2019-04-29T19:08:23.052Z,10.00
2019-04-29T19:10:52.149Z,10.27
2019-04-29T19:13:22.747Z,10.13
2019-04-29T19:15:56.023Z,10.40
2019-04-29T19:18:25.601Z,9.00
2019-04-29T19:20:56.997Z,8.80
2019-04-29T19:23:29.642Z,9.27
2019-04-29T19:25:59.897Z,8.53
2019-04-29T19:28:32.379Z,9.70
2019-04-29T19:31:03.603Z,9.50
2019-04-29T19:33:38.983Z,9.60
2019-04-29T19:36:09.150Z,9.20
2019-04-29T19:38:43.300Z,9.10
2019-04-29T19:41:15.881Z,9.60
2019-04-29T19:43:43.668Z,9.43
2019-04-29T19:46:24.279Z,8.07
2019-04-29T19:48:48.419Z,9.27
2019-04-29T19:51:22.955Z,9.37
2019-04-29T19:53:51.179Z,9.33
2019-04-29T19:56:24.159Z,8.20
2019-04-29T19:58:57.318Z,9.00
2019-04-29T20:01:30.827Z,8.63
2019-04-29T20:04:00.544Z,9.03
2019-04-29T20:06:32.307Z,8.57
2019-04-29T20:09:13.605Z,7.67
2019-04-29T20:11:35.772Z,8.40
2019-04-29T20:14:17.960Z,7.83
2019-04-29T20:17:17.428Z,7.90
2019-04-29T20:19:55.294Z,7.90
2019-04-29T20:22:21.907Z,8.23
2019-04-29T20:24:52.626Z,8.87
2019-04-29T20:27:26.067Z,8.90
2019-04-29T20:29:55.882Z,9.03
2019-04-29T20:32:30.772Z,9.30
2019-04-29T20:35:06.845Z,10.03
2019-04-29T20:37:31.227Z,10.23
2019-04-29T20:40:02.141Z,11.07
2019-04-29T20:42:32.896Z,11.70
2019-04-29T20:45:05.387Z,12.33
2019-04-29T20:47:41.772Z,12.23
2019-04-29T20:50:13.839Z,11.70
2019-04-29T20:52:45.858Z,11.33
2019-04-29T20:55:16.665Z,11.37
2019-04-29T20:57:47.842Z,9.63
2019-04-29T21:00:24.924Z,9.83
2019-04-29T21:02:52.570Z,10.87
2019-04-29T21:05:49.650Z,10.47
2019-04-29T21:08:19.067Z,10.63
2019-04-29T21:10:49.475Z,9.47
2019-04-29T21:13:31.536Z,10.37
2019-04-29T21:16:05.254Z,9.87
2019-04-29T21:18:38.709Z,9.77
2019-04-29T21:21:08.659Z,9.13
2019-04-29T21:23:39.162Z,9.93
2019-04-29T21:26:09.628Z,9.67
2019-04-29T21:28:41.777Z,9.00
2019-04-29T21:31:16.580Z,7.93
2019-04-29T21:33:45.607Z,8.70
2019-04-29T21:36:34.949Z,13.50
2019-04-29T21:39:12.953Z,55.73
2019-04-29T21:41:50.702Z,12.97
2019-04-29T21:44:23.790Z,8.93
2019-04-29T21:46:52.321Z,8.23
2019-04-29T21:49:22.822Z,8.40
2019-04-29T21:51:53.331Z,8.03
2019-04-29T21:54:23.817Z,7.17
2019-04-29T21:56:55.604Z,8.00
2019-04-29T21:59:26.168Z,7.33
2019-04-29T22:01:59.143Z,7.60
2019-04-29T22:04:32.753Z,8.03
2019-04-29T22:07:06.726Z,7.60
2019-04-29T22:09:36.303Z,7.50
2019-04-29T22:12:05.902Z,7.20
2019-04-29T22:14:36.406Z,6.80
2019-04-29T22:17:06.896Z,7.10
2019-04-29T22:19:37.425Z,7.43
2019-04-29T22:22:08.146Z,7.47
2019-04-29T22:24:38.616Z,7.20
2019-04-29T22:27:09.174Z,8.67
2019-04-29T22:29:39.631Z,8.30
2019-04-29T22:32:15.127Z,8.90
2019-04-29T22:34:42.316Z,8.27
2019-04-29T22:37:12.776Z,7.43
2019-04-29T22:39:47.426Z,8.23
2019-04-29T22:42:23.593Z,8.43
2019-04-29T22:44:57.313Z,9.33
2019-04-29T22:47:26.399Z,7.40
2019-04-29T22:49:58.779Z,8.13
2019-04-29T22:52:29.870Z,7.00
2019-04-29T22:55:02.002Z,7.70
2019-04-29T22:57:32.836Z,7.23
2019-04-29T23:00:05.117Z,8.40
2019-04-29T23:02:35.781Z,8.20
2019-04-29T23:05:07.151Z,9.00
2019-04-29T23:07:37.882Z,8.00
2019-04-29T23:10:08.992Z,8.10
2019-04-29T23:12:39.755Z,7.97
2019-04-29T23:15:10.592Z,8.57
2019-04-29T23:17:42.533Z,8.60
2019-04-29T23:20:28.911Z,8.10
2019-04-29T23:23:18.974Z,7.63
2019-04-29T23:25:51.119Z,7.80
2019-04-29T23:28:22.523Z,8.10
2019-04-29T23:30:53.843Z,7.60
2019-04-29T23:33:26.388Z,8.70
2019-04-29T23:35:56.528Z,8.37
2019-04-29T23:38:27.008Z,9.00
2019-04-29T23:40:57.528Z,8.80
2019-04-29T23:43:28.626Z,7.70
2019-04-29T23:46:00.540Z,8.83
2019-04-29T23:48:38.663Z,7.70
2019-04-29T23:51:05.350Z,8.60
2019-04-29T23:53:35.924Z,8.53
2019-04-29T23:56:09.684Z,7.60
2019-04-29T23:58:43.020Z,7.97
